Portada
METAR-TAF:

METAR-TAF

Aeroports :

Waterford, Irlanda

latitud: 52-11-14N, longitud: 7-05-13W, altitud: 36 m

Observació

L'informe es va fer fa 1 hora i 24 minuts, a les 19:30 UTC
Vent 4 kt del Sud
Temperatura 7°C
Humitat 87%
Pressió 1026 hPa
Visibilitat 10 km o més
sense núvols per sota de 1500 mi sense presència de cumulonimbus.

METAR: EIWF 071930Z 19004KT CAVOK 07/05 Q1026

Hora: 21:54 (20:54 UTC)

Pronòstic

L'informe es va fer fa 54 minuts, a les 20:00 UTC
Pronòstic vàlid del 07 a les 21 UTC al 08 a les 06 UTC
Vent 3 kt amb direcció variable
Visibilitat 10 km o més
Escasses núvols a una alçada de 2000 ft
Probabilitat 30% :
Temporalment
l' 08 a les 00 UTC al 08 a les 06 UTC
Visibilitat: 3000 m
boirina

TAF: EIWF 072000Z 0721/0806 VRB03KT 9999 FEW020 PROB30 TEMPO 0800/0806 3000 BR

Observacions i pronòstics meteorològics de més de 4000 aeroports (METAR i TAF).

Les estacions disponibles són els punts grocs i vermells al mapa.

Posi el ratolí al punt desitjat per veure el nom de l'estació.

Feu clic per veure les observacions i els pronòstics meteorològics.

Per canviar el mapa: feu clic els botons verds amb una creu de color negre per apropar; al botó verd amb un guió per allunyar la imatge; o en les fletxes verdes per a mapes adjacents.


METAR-TAF: